createdAt,value
2023-03-24T00:00:24.326Z,10.46
2023-03-24T00:02:53.428Z,10.45
2023-03-24T00:05:22.804Z,10.44
2023-03-24T00:07:55.062Z,10.43
2023-03-24T00:10:24.507Z,10.42
2023-03-24T00:12:52.815Z,10.41
2023-03-24T00:15:21.614Z,10.41
2023-03-24T00:17:50.717Z,10.40
2023-03-24T00:20:20.554Z,10.40
2023-03-24T00:22:57.145Z,10.40
2023-03-24T00:25:34.056Z,10.40
2023-03-24T00:28:06.001Z,10.40
2023-03-24T00:30:36.724Z,10.41
2023-03-24T00:33:07.447Z,10.42
2023-03-24T00:35:40.744Z,10.42
2023-03-24T00:38:10.791Z,10.42
2023-03-24T00:40:39.348Z,10.42
2023-03-24T00:43:08.105Z,10.43
2023-03-24T00:45:37.110Z,10.44
2023-03-24T00:48:06.418Z,10.44
2023-03-24T00:50:34.994Z,10.42
2023-03-24T00:53:05.701Z,10.41
2023-03-24T00:55:38.146Z,10.40
2023-03-24T00:58:06.402Z,10.40
2023-03-24T01:00:42.576Z,10.39
2023-03-24T01:03:11.930Z,10.38
2023-03-24T01:05:41.425Z,10.38
2023-03-24T01:08:13.762Z,10.37
2023-03-24T01:10:50.576Z,10.35
2023-03-24T01:13:25.306Z,10.33
2023-03-24T01:15:53.831Z,10.30
2023-03-24T01:18:24.234Z,10.27
2023-03-24T01:20:52.831Z,10.25
2023-03-24T01:23:23.596Z,10.23
2023-03-24T01:25:52.283Z,10.20
2023-03-24T01:28:27.365Z,10.18
2023-03-24T01:30:55.966Z,10.17
2023-03-24T01:33:24.689Z,10.15
2023-03-24T01:35:52.911Z,10.13
2023-03-24T01:38:21.156Z,10.12
2023-03-24T01:40:50.064Z,10.11
2023-03-24T01:43:31.498Z,10.10
2023-03-24T01:46:14.312Z,10.09
2023-03-24T01:48:50.715Z,10.08
2023-03-24T01:51:28.446Z,10.07
2023-03-24T01:54:05.402Z,10.07
2023-03-24T01:56:38.339Z,10.06
2023-03-24T01:59:09.478Z,10.04
2023-03-24T02:01:44.516Z,10.03
2023-03-24T02:04:20.517Z,10.01
2023-03-24T02:06:49.100Z,10.00
2023-03-24T02:09:19.274Z,9.98
2023-03-24T02:11:47.941Z,9.96
2023-03-24T02:14:16.422Z,9.94
2023-03-24T02:17:00.113Z,9.92
2023-03-24T02:19:53.792Z,9.89
2023-03-24T02:22:47.266Z,9.87
2023-03-24T02:25:43.803Z,9.85
2023-03-24T02:28:23.660Z,9.84
2023-03-24T02:31:29.324Z,9.83
2023-03-24T02:34:36.313Z,9.83
2023-03-24T02:37:21.380Z,9.82
2023-03-24T02:39:59.121Z,9.83
2023-03-24T02:42:46.770Z,9.84
2023-03-24T02:45:24.266Z,9.85
2023-03-24T02:48:21.494Z,9.86
2023-03-24T02:50:53.617Z,9.86
2023-03-24T02:53:48.349Z,9.86
2023-03-24T02:56:59.646Z,9.86
2023-03-24T02:59:45.504Z,9.87
2023-03-24T03:02:47.207Z,9.88
2023-03-24T03:05:20.368Z,9.89
2023-03-24T03:07:51.589Z,9.89
2023-03-24T03:10:25.802Z,9.89
2023-03-24T03:12:57.063Z,9.89
2023-03-24T03:15:31.182Z,9.89
2023-03-24T03:18:07.287Z,9.89
2023-03-24T03:20:39.754Z,9.88
2023-03-24T03:23:13.650Z,9.87
2023-03-24T03:25:46.622Z,9.86
2023-03-24T03:28:22.085Z,9.85
2023-03-24T03:30:54.859Z,9.83
2023-03-24T03:33:27.860Z,9.81
2023-03-24T03:36:16.207Z,9.79
2023-03-24T03:39:08.515Z,9.78
2023-03-24T03:41:37.906Z,9.78
2023-03-24T03:44:06.941Z,9.77
2023-03-24T03:46:38.463Z,9.77
2023-03-24T03:49:08.587Z,9.78
2023-03-24T03:51:38.030Z,9.78
2023-03-24T03:54:08.942Z,9.78
2023-03-24T03:56:37.583Z,9.78
2023-03-24T03:59:29.819Z,9.78
2023-03-24T04:02:05.074Z,9.78
2023-03-24T04:04:59.803Z,9.79
2023-03-24T04:08:37.507Z,9.79
2023-03-24T04:11:55.360Z,9.78
2023-03-24T04:15:25.920Z,9.76
2023-03-24T04:18:35.896Z,9.74
2023-03-24T04:21:33.661Z,9.75
2023-03-24T04:24:37.377Z,9.77
2023-03-24T04:27:22.162Z,9.81
2023-03-24T04:30:08.289Z,9.84
2023-03-24T04:32:46.545Z,9.89
2023-03-24T04:35:32.159Z,9.92
2023-03-24T04:38:27.970Z,9.95
2023-03-24T04:41:09.929Z,9.97
2023-03-24T04:43:40.551Z,9.99
2023-03-24T04:46:10.234Z,10.01
2023-03-24T04:49:03.352Z,10.02
2023-03-24T04:51:34.861Z,10.04
2023-03-24T04:54:09.100Z,10.05
2023-03-24T04:56:47.903Z,10.07
2023-03-24T04:59:24.843Z,10.08
2023-03-24T05:01:53.648Z,10.09
2023-03-24T05:04:42.555Z,10.09
2023-03-24T05:07:21.730Z,10.11
2023-03-24T05:09:52.688Z,10.12
2023-03-24T05:12:28.214Z,10.14
2023-03-24T05:15:33.609Z,10.18
2023-03-24T05:18:28.184Z,10.21
2023-03-24T05:21:01.030Z,10.24
2023-03-24T05:23:29.783Z,10.27
2023-03-24T05:26:04.926Z,10.30
2023-03-24T05:28:36.458Z,10.34
2023-03-24T05:31:05.146Z,10.37
2023-03-24T05:33:53.251Z,10.42
2023-03-24T05:36:25.680Z,10.47
2023-03-24T05:38:59.624Z,10.51
2023-03-24T05:41:38.992Z,10.55
2023-03-24T05:44:07.344Z,10.59
2023-03-24T05:46:37.149Z,10.63
2023-03-24T05:49:06.267Z,10.66
2023-03-24T05:51:40.068Z,10.72
2023-03-24T05:54:11.670Z,10.78
2023-03-24T05:56:44.629Z,10.85
2023-03-24T05:59:42.461Z,10.93
2023-03-24T06:02:20.448Z,11.01
2023-03-24T06:04:53.366Z,11.10
2023-03-24T06:07:26.950Z,11.21
2023-03-24T06:10:03.269Z,11.35
2023-03-24T06:12:38.811Z,11.51
2023-03-24T06:15:08.574Z,11.66
2023-03-24T06:17:46.285Z,11.82
2023-03-24T06:20:24.542Z,11.98
2023-03-24T06:23:05.205Z,12.12
2023-03-24T06:25:45.074Z,12.22
2023-03-24T06:28:22.541Z,12.32
2023-03-24T06:30:59.218Z,12.40
2023-03-24T06:33:35.365Z,12.50
2023-03-24T06:36:04.557Z,12.61
2023-03-24T06:38:34.630Z,12.69
2023-03-24T06:41:03.771Z,12.74
2023-03-24T06:43:32.873Z,12.77
2023-03-24T06:46:01.870Z,12.80
2023-03-24T06:48:30.699Z,12.81
2023-03-24T06:51:04.868Z,12.83
2023-03-24T06:53:35.276Z,12.86
2023-03-24T06:56:05.844Z,12.85
2023-03-24T06:58:40.560Z,12.85
2023-03-24T07:01:11.947Z,12.86
2023-03-24T07:03:59.717Z,12.85
2023-03-24T07:07:00.741Z,12.84
2023-03-24T07:09:32.815Z,12.83
2023-03-24T07:12:03.737Z,12.83
2023-03-24T07:14:32.134Z,12.81
2023-03-24T07:17:02.512Z,12.76
2023-03-24T07:19:49.165Z,12.72
2023-03-24T07:22:42.378Z,12.66
2023-03-24T07:25:30.721Z,12.65
2023-03-24T07:28:22.118Z,12.60
2023-03-24T07:30:53.938Z,12.55
2023-03-24T07:33:25.070Z,12.53
2023-03-24T07:35:57.612Z,12.56
2023-03-24T07:38:29.381Z,12.60
2023-03-24T07:41:01.511Z,12.63
2023-03-24T07:43:31.643Z,12.63
2023-03-24T07:46:02.586Z,12.68
2023-03-24T07:48:33.422Z,12.68
2023-03-24T07:51:02.067Z,12.68
2023-03-24T07:53:55.400Z,12.69
2023-03-24T07:56:49.909Z,12.72
2023-03-24T07:59:18.824Z,12.71
2023-03-24T08:02:11.914Z,12.69
2023-03-24T08:04:53.915Z,12.64
2023-03-24T08:07:42.890Z,12.68
2023-03-24T08:10:14.096Z,12.78
2023-03-24T08:12:45.458Z,12.91
2023-03-24T08:15:13.726Z,13.00
2023-03-24T08:17:43.889Z,13.07
2023-03-24T08:20:21.483Z,13.14
2023-03-24T08:22:50.445Z,13.15
2023-03-24T08:25:19.152Z,13.16
2023-03-24T08:27:51.758Z,13.17
2023-03-24T08:30:21.249Z,13.22
2023-03-24T08:32:59.880Z,13.26
2023-03-24T08:35:33.444Z,13.31
2023-03-24T08:38:06.090Z,13.37
2023-03-24T08:40:37.248Z,13.43
2023-03-24T08:43:09.391Z,13.47
2023-03-24T08:45:37.789Z,13.48
2023-03-24T08:48:07.036Z,13.56
2023-03-24T08:50:37.710Z,13.66
2023-03-24T08:53:06.303Z,13.76
2023-03-24T08:55:35.029Z,13.86
2023-03-24T08:58:03.168Z,13.94
2023-03-24T09:00:31.792Z,14.00
2023-03-24T09:03:09.624Z,14.08
2023-03-24T09:05:44.556Z,14.14
2023-03-24T09:08:14.306Z,14.19
2023-03-24T09:10:48.563Z,14.27
2023-03-24T09:13:18.652Z,14.41
2023-03-24T09:15:50.115Z,14.45
2023-03-24T09:18:19.065Z,14.54
2023-03-24T09:20:50.626Z,14.67
2023-03-24T09:23:20.048Z,14.81
2023-03-24T09:25:51.319Z,14.96
2023-03-24T09:28:21.636Z,15.14
2023-03-24T09:30:50.276Z,15.33
2023-03-24T09:33:18.871Z,15.46
2023-03-24T09:35:58.492Z,15.61
2023-03-24T09:38:33.815Z,15.74
2023-03-24T09:41:04.707Z,15.87
2023-03-24T09:43:39.971Z,15.94
2023-03-24T09:46:34.252Z,15.89
2023-03-24T09:49:03.343Z,15.83
2023-03-24T09:51:36.746Z,15.68
2023-03-24T09:54:22.515Z,15.69
2023-03-24T09:56:55.474Z,15.86
2023-03-24T09:59:40.209Z,16.00
2023-03-24T10:02:19.761Z,16.12
2023-03-24T10:04:48.846Z,16.13
2023-03-24T10:07:38.990Z,16.11
2023-03-24T10:10:15.789Z,16.08
2023-03-24T10:12:48.540Z,16.14
2023-03-24T10:15:50.169Z,16.24
2023-03-24T10:18:30.796Z,16.39
2023-03-24T10:21:25.837Z,16.41
2023-03-24T10:23:59.149Z,16.50
2023-03-24T10:26:39.940Z,16.65
2023-03-24T10:29:28.178Z,16.80
2023-03-24T10:31:59.459Z,16.93
2023-03-24T10:34:30.595Z,16.98
2023-03-24T10:37:01.342Z,17.06
2023-03-24T10:39:41.888Z,17.09
2023-03-24T10:42:21.694Z,17.06
2023-03-24T10:44:52.302Z,17.06
2023-03-24T10:47:30.749Z,17.18
2023-03-24T10:50:12.752Z,17.28
2023-03-24T10:52:47.470Z,17.29
2023-03-24T10:55:19.265Z,17.32
2023-03-24T10:57:55.730Z,17.47
2023-03-24T11:00:31.946Z,17.61
2023-03-24T11:03:02.665Z,17.65
2023-03-24T11:05:33.457Z,17.64
2023-03-24T11:08:40.423Z,17.63
2023-03-24T11:11:24.455Z,17.80
2023-03-24T11:13:58.612Z,18.01
2023-03-24T11:16:37.203Z,18.20
2023-03-24T11:19:07.374Z,18.36
2023-03-24T11:21:37.281Z,18.47
2023-03-24T11:24:13.382Z,18.55
2023-03-24T11:26:51.573Z,18.63
2023-03-24T11:29:21.961Z,18.69
2023-03-24T11:31:52.858Z,18.74
2023-03-24T11:34:26.410Z,18.78
2023-03-24T11:37:01.505Z,18.83
2023-03-24T11:39:31.681Z,18.85
2023-03-24T11:42:27.433Z,18.87
2023-03-24T11:44:56.792Z,18.91
2023-03-24T11:47:36.921Z,18.94
2023-03-24T11:50:05.073Z,18.99
2023-03-24T11:52:56.440Z,19.06
2023-03-24T11:56:12.561Z,19.13
2023-03-24T11:58:49.082Z,19.16
2023-03-24T12:01:20.828Z,19.17
2023-03-24T12:04:13.072Z,19.17
2023-03-24T12:07:01.494Z,19.21
2023-03-24T12:09:32.516Z,19.20
2023-03-24T12:12:36.372Z,19.25
2023-03-24T12:15:24.592Z,19.37
2023-03-24T12:18:18.731Z,19.47
2023-03-24T12:20:57.482Z,19.57
2023-03-24T12:24:02.295Z,19.62
2023-03-24T12:26:33.449Z,19.61
2023-03-24T12:29:24.101Z,19.51
2023-03-24T12:32:03.848Z,19.47
2023-03-24T12:34:36.579Z,19.47
2023-03-24T12:37:27.257Z,19.48
2023-03-24T12:40:02.613Z,19.50
2023-03-24T12:42:33.619Z,19.46
2023-03-24T12:45:14.322Z,19.42
2023-03-24T12:47:59.011Z,19.38
2023-03-24T12:50:52.742Z,19.35
2023-03-24T12:53:55.093Z,19.33
2023-03-24T12:57:00.326Z,19.36
2023-03-24T13:00:11.053Z,19.38
2023-03-24T13:02:45.975Z,19.42
2023-03-24T13:05:19.172Z,19.49
2023-03-24T13:07:54.261Z,19.55
2023-03-24T13:10:33.879Z,19.59
2023-03-24T13:13:24.686Z,19.62
2023-03-24T13:16:06.661Z,19.62
2023-03-24T13:18:52.832Z,19.55
2023-03-24T13:21:23.769Z,19.55
2023-03-24T13:23:58.112Z,19.55
2023-03-24T13:26:54.390Z,19.53
2023-03-24T13:29:47.430Z,19.54
2023-03-24T13:32:22.595Z,19.55
2023-03-24T13:34:58.737Z,19.54
2023-03-24T13:37:32.071Z,19.50
2023-03-24T13:40:01.480Z,19.44
2023-03-24T13:42:42.753Z,19.40
2023-03-24T13:45:26.904Z,19.42
2023-03-24T13:48:09.807Z,19.48
2023-03-24T13:50:42.435Z,19.54
2023-03-24T13:53:14.396Z,19.55
2023-03-24T13:55:51.592Z,19.56
2023-03-24T13:58:23.349Z,19.55
2023-03-24T14:01:12.499Z,19.51
2023-03-24T14:03:42.077Z,19.44
2023-03-24T14:06:11.504Z,19.37
2023-03-24T14:08:52.141Z,19.29
2023-03-24T14:11:42.630Z,19.20
2023-03-24T14:14:19.542Z,19.14
2023-03-24T14:17:04.488Z,19.07
2023-03-24T14:19:39.481Z,19.00
2023-03-24T14:22:32.143Z,18.94
2023-03-24T14:25:21.567Z,18.88
2023-03-24T14:27:51.641Z,18.83
2023-03-24T14:30:26.465Z,18.79
2023-03-24T14:32:56.478Z,18.76
2023-03-24T14:35:35.129Z,18.73
2023-03-24T14:38:21.555Z,18.69
2023-03-24T14:40:54.449Z,18.64
2023-03-24T14:43:30.123Z,18.60
2023-03-24T14:46:00.275Z,18.55
2023-03-24T14:48:57.551Z,18.50
2023-03-24T14:51:44.616Z,18.45
2023-03-24T14:54:23.529Z,18.39
2023-03-24T14:56:53.840Z,18.34
2023-03-24T14:59:39.976Z,18.28
2023-03-24T15:02:20.688Z,18.23
2023-03-24T15:05:13.937Z,18.20
2023-03-24T15:07:42.810Z,18.16
2023-03-24T15:10:15.904Z,18.12
2023-03-24T15:12:49.343Z,18.09
2023-03-24T15:15:22.595Z,18.05
2023-03-24T15:17:51.436Z,18.03
2023-03-24T15:20:27.059Z,18.00
2023-03-24T15:22:55.481Z,17.97
2023-03-24T15:25:28.214Z,17.92
2023-03-24T15:27:58.304Z,17.88
2023-03-24T15:30:27.082Z,17.83
2023-03-24T15:32:56.023Z,17.79
2023-03-24T15:35:25.072Z,17.75
2023-03-24T15:37:55.469Z,17.70
2023-03-24T15:40:26.958Z,17.66
2023-03-24T15:42:57.108Z,17.62
2023-03-24T15:45:31.530Z,17.57
2023-03-24T15:48:13.501Z,17.53
2023-03-24T15:50:42.423Z,17.47
2023-03-24T15:53:19.655Z,17.43
2023-03-24T15:56:02.512Z,17.38
2023-03-24T15:58:34.630Z,17.33
2023-03-24T16:01:10.262Z,17.29
2023-03-24T16:03:42.328Z,17.24
2023-03-24T16:06:15.218Z,17.19
2023-03-24T16:08:46.106Z,17.15
2023-03-24T16:11:14.404Z,17.12
2023-03-24T16:13:47.329Z,17.08
2023-03-24T16:16:29.737Z,17.04
2023-03-24T16:18:59.553Z,16.99
2023-03-24T16:21:28.933Z,16.95
2023-03-24T16:23:58.408Z,16.92
2023-03-24T16:26:27.563Z,16.88
2023-03-24T16:29:16.822Z,16.83
2023-03-24T16:31:49.486Z,16.79
2023-03-24T16:34:21.242Z,16.74
2023-03-24T16:36:51.062Z,16.71
2023-03-24T16:39:24.050Z,16.67
2023-03-24T16:41:54.272Z,16.63
2023-03-24T16:44:23.772Z,16.58
2023-03-24T16:46:53.783Z,16.54
2023-03-24T16:49:22.754Z,16.50
2023-03-24T16:51:52.742Z,16.46
2023-03-24T16:54:25.527Z,16.44
2023-03-24T16:56:54.469Z,16.41
2023-03-24T16:59:22.656Z,16.38
2023-03-24T17:01:53.116Z,16.35
2023-03-24T17:04:22.466Z,16.31
2023-03-24T17:06:57.724Z,16.28
2023-03-24T17:09:28.669Z,16.26
2023-03-24T17:11:57.632Z,16.23
2023-03-24T17:14:32.743Z,16.20
2023-03-24T17:17:02.978Z,16.18
2023-03-24T17:19:31.477Z,16.15
2023-03-24T17:22:06.476Z,16.13
2023-03-24T17:24:41.836Z,16.11
2023-03-24T17:27:21.385Z,16.09
2023-03-24T17:29:50.982Z,16.08
2023-03-24T17:32:21.753Z,16.05
2023-03-24T17:34:52.388Z,16.02
2023-03-24T17:37:21.262Z,16.00
2023-03-24T17:39:52.762Z,15.98
2023-03-24T17:42:26.407Z,15.96
2023-03-24T17:44:57.598Z,15.93
2023-03-24T17:47:30.411Z,15.90
2023-03-24T17:50:18.521Z,15.87
2023-03-24T17:52:48.921Z,15.84
2023-03-24T17:55:17.262Z,15.80
2023-03-24T17:57:45.510Z,15.77
2023-03-24T18:00:14.779Z,15.74
2023-03-24T18:02:43.818Z,15.72
2023-03-24T18:05:16.282Z,15.69
2023-03-24T18:07:47.273Z,15.65
2023-03-24T18:10:15.794Z,15.62
2023-03-24T18:12:47.199Z,15.59
2023-03-24T18:15:16.058Z,15.56
2023-03-24T18:17:44.743Z,15.53
2023-03-24T18:20:20.995Z,15.49
2023-03-24T18:22:49.137Z,15.44
2023-03-24T18:25:17.635Z,15.38
2023-03-24T18:27:45.772Z,15.34
2023-03-24T18:30:14.697Z,15.31
2023-03-24T18:32:43.303Z,15.30
2023-03-24T18:35:16.448Z,15.27
2023-03-24T18:37:44.868Z,15.25
2023-03-24T18:40:16.263Z,15.21
2023-03-24T18:42:45.400Z,15.12
2023-03-24T18:45:17.933Z,15.06
2023-03-24T18:47:48.250Z,14.99
2023-03-24T18:50:16.709Z,14.93
2023-03-24T18:52:49.973Z,14.89
2023-03-24T18:55:20.904Z,14.86
2023-03-24T18:57:49.242Z,14.84
2023-03-24T19:00:20.468Z,14.83
2023-03-24T19:02:49.368Z,14.82
2023-03-24T19:05:18.105Z,14.81
2023-03-24T19:07:48.650Z,14.77
2023-03-24T19:10:16.849Z,14.73
2023-03-24T19:12:49.817Z,14.70
2023-03-24T19:15:19.089Z,14.68
2023-03-24T19:17:47.507Z,14.65
2023-03-24T19:20:20.202Z,14.63
2023-03-24T19:22:49.433Z,14.62
2023-03-24T19:25:18.951Z,14.60
2023-03-24T19:27:49.213Z,14.59
2023-03-24T19:30:19.133Z,14.58
2023-03-24T19:32:48.091Z,14.56
2023-03-24T19:35:21.426Z,14.56
2023-03-24T19:37:50.210Z,14.55
2023-03-24T19:40:25.394Z,14.53
2023-03-24T19:42:54.640Z,14.51
2023-03-24T19:45:23.130Z,14.49
2023-03-24T19:47:51.621Z,14.47
2023-03-24T19:50:22.908Z,14.48
2023-03-24T19:52:51.498Z,14.49
2023-03-24T19:55:20.070Z,14.51
2023-03-24T19:57:48.784Z,14.50
2023-03-24T20:00:21.708Z,14.50
2023-03-24T20:02:51.223Z,14.48
2023-03-24T20:05:27.072Z,14.45
2023-03-24T20:07:59.936Z,14.42
2023-03-24T20:10:29.762Z,14.35
2023-03-24T20:12:58.059Z,14.29
2023-03-24T20:15:26.308Z,14.18
2023-03-24T20:17:54.427Z,14.10
2023-03-24T20:20:25.619Z,14.05
2023-03-24T20:22:58.011Z,14.00
2023-03-24T20:25:29.775Z,13.98
2023-03-24T20:28:02.660Z,13.99
2023-03-24T20:30:41.222Z,14.00
2023-03-24T20:33:35.612Z,14.00
2023-03-24T20:36:18.409Z,13.99
2023-03-24T20:39:08.183Z,13.99
2023-03-24T20:41:55.063Z,13.99
2023-03-24T20:44:31.454Z,14.00
2023-03-24T20:47:06.785Z,14.00
2023-03-24T20:49:35.572Z,13.99
2023-03-24T20:52:06.672Z,13.97
2023-03-24T20:55:01.724Z,13.92
2023-03-24T20:57:31.588Z,13.90
2023-03-24T21:00:14.518Z,13.88
2023-03-24T21:02:45.562Z,13.85
2023-03-24T21:05:21.350Z,13.82
2023-03-24T21:07:50.399Z,13.78
2023-03-24T21:10:18.659Z,13.76
2023-03-24T21:12:53.205Z,13.74
2023-03-24T21:15:25.290Z,13.70
2023-03-24T21:17:54.158Z,13.64
2023-03-24T21:20:27.060Z,13.56
2023-03-24T21:22:57.218Z,13.53
2023-03-24T21:25:33.810Z,13.53
2023-03-24T21:28:03.678Z,13.52
2023-03-24T21:30:31.954Z,13.51
2023-03-24T21:33:01.542Z,13.52
2023-03-24T21:35:37.546Z,13.53
2023-03-24T21:38:09.905Z,13.48
2023-03-24T21:40:38.326Z,13.46
2023-03-24T21:43:07.517Z,13.41
2023-03-24T21:45:36.384Z,13.37
2023-03-24T21:48:06.237Z,13.34
2023-03-24T21:50:39.175Z,13.28
2023-03-24T21:53:15.436Z,13.25
2023-03-24T21:55:55.796Z,13.26
2023-03-24T21:58:33.145Z,13.31
2023-03-24T22:01:07.827Z,13.36
2023-03-24T22:03:38.982Z,13.39
2023-03-24T22:06:10.749Z,13.43
2023-03-24T22:08:44.166Z,13.46
2023-03-24T22:11:18.990Z,13.49
2023-03-24T22:13:54.050Z,13.53
2023-03-24T22:16:23.370Z,13.56
2023-03-24T22:18:54.480Z,13.59
2023-03-24T22:21:30.815Z,13.62
2023-03-24T22:24:11.166Z,13.65
2023-03-24T22:27:39.258Z,13.71
2023-03-24T22:39:05.537Z,13.73
2023-03-24T22:42:01.725Z,13.68
2023-03-24T22:44:34.238Z,13.66
2023-03-24T22:47:15.719Z,13.70
2023-03-24T22:50:00.743Z,13.77
2023-03-24T22:52:33.705Z,13.80
2023-03-24T22:55:06.511Z,13.83
2023-03-24T22:57:41.832Z,13.84
2023-03-24T23:00:44.906Z,13.82
2023-03-24T23:07:04.280Z,13.75
2023-03-24T23:09:37.646Z,13.73
2023-03-24T23:12:08.794Z,13.73
2023-03-24T23:14:40.990Z,13.74
2023-03-24T23:17:10.936Z,13.76
2023-03-24T23:19:53.787Z,13.76
2023-03-24T23:22:26.489Z,13.76
2023-03-24T23:25:01.006Z,13.75
2023-03-24T23:27:44.894Z,13.74
2023-03-24T23:30:23.785Z,13.74
2023-03-24T23:33:09.210Z,13.74
2023-03-24T23:36:37.444Z,13.73
2023-03-24T23:42:54.145Z,13.72
2023-03-24T23:45:48.587Z,13.70
2023-03-24T23:48:46.318Z,13.72
2023-03-24T23:51:40.393Z,13.74
2023-03-24T23:57:40.123Z,13.78
